sensor_id;sensor_type;location;lat;lon;timestamp;pressure;altitude;pressure_sealevel;temperature;humidity
57900;BME280;60605;53.716;19.940;2024-02-14T00:01:47;100706.92;;;0.23;100.00
57900;BME280;60605;53.716;19.940;2024-02-14T00:06:51;100711.50;;;0.19;100.00
57900;BME280;60605;53.716;19.940;2024-02-14T00:11:56;100717.75;;;0.14;100.00
57900;BME280;60605;53.716;19.940;2024-02-14T00:17:00;100715.52;;;0.10;100.00
57900;BME280;60605;53.716;19.940;2024-02-14T00:22:03;100721.35;;;0.09;100.00
57900;BME280;60605;53.716;19.940;2024-02-14T00:27:07;100726.80;;;0.05;100.00
57900;BME280;60605;53.716;19.940;2024-02-14T00:32:12;100730.47;;;0.02;100.00
57900;BME280;60605;53.716;19.940;2024-02-14T00:37:16;100733.89;;;-0.00;100.00
57900;BME280;60605;53.716;19.940;2024-02-14T00:42:19;100732.80;;;0.01;100.00
57900;BME280;60605;53.716;19.940;2024-02-14T00:47:23;100731.87;;;0.05;100.00
57900;BME280;60605;53.716;19.940;2024-02-14T00:52:26;100739.36;;;0.13;100.00
57900;BME280;60605;53.716;19.940;2024-02-14T00:57:30;100743.75;;;0.24;100.00
57900;BME280;60605;53.716;19.940;2024-02-14T01:02:35;100740.66;;;0.33;100.00
57900;BME280;60605;53.716;19.940;2024-02-14T01:07:39;100739.11;;;0.43;100.00
57900;BME280;60605;53.716;19.940;2024-02-14T01:12:42;100741.85;;;0.51;100.00
57900;BME280;60605;53.716;19.940;2024-02-14T01:17:45;100744.26;;;0.55;100.00
57900;BME280;60605;53.716;19.940;2024-02-14T01:22:51;100745.16;;;0.58;100.00
57900;BME280;60605;53.716;19.940;2024-02-14T01:27:54;100748.38;;;0.64;100.00
57900;BME280;60605;53.716;19.940;2024-02-14T01:32:58;100754.14;;;0.71;100.00
57900;BME280;60605;53.716;19.940;2024-02-14T01:38:01;100751.56;;;0.77;100.00
57900;BME280;60605;53.716;19.940;2024-02-14T01:43:06;100745.92;;;0.81;100.00
57900;BME280;60605;53.716;19.940;2024-02-14T01:48:09;100746.67;;;0.83;100.00
57900;BME280;60605;53.716;19.940;2024-02-14T01:53:13;100752.05;;;0.85;100.00
57900;BME280;60605;53.716;19.940;2024-02-14T01:58:17;100755.84;;;0.86;100.00
57900;BME280;60605;53.716;19.940;2024-02-14T02:03:22;100757.02;;;0.90;100.00
57900;BME280;60605;53.716;19.940;2024-02-14T02:08:27;100762.67;;;0.96;100.00
57900;BME280;60605;53.716;19.940;2024-02-14T02:13:30;100764.21;;;1.03;100.00
57900;BME280;60605;53.716;19.940;2024-02-14T02:18:34;100763.40;;;1.12;100.00
57900;BME280;60605;53.716;19.940;2024-02-14T02:23:38;100766.86;;;1.20;100.00
57900;BME280;60605;53.716;19.940;2024-02-14T02:28:47;100770.05;;;1.26;100.00
57900;BME280;60605;53.716;19.940;2024-02-14T02:33:50;100766.89;;;1.32;100.00
57900;BME280;60605;53.716;19.940;2024-02-14T02:38:54;100761.96;;;1.39;100.00
57900;BME280;60605;53.716;19.940;2024-02-14T02:43:58;100768.09;;;1.46;100.00
57900;BME280;60605;53.716;19.940;2024-02-14T02:49:01;100764.77;;;1.51;100.00
57900;BME280;60605;53.716;19.940;2024-02-14T02:54:05;100771.37;;;1.56;100.00
57900;BME280;60605;53.716;19.940;2024-02-14T02:59:10;100771.60;;;1.62;100.00
57900;BME280;60605;53.716;19.940;2024-02-14T03:04:14;100770.44;;;1.67;100.00
57900;BME280;60605;53.716;19.940;2024-02-14T03:09:18;100772.84;;;1.71;100.00
57900;BME280;60605;53.716;19.940;2024-02-14T03:14:21;100773.77;;;1.73;100.00
57900;BME280;60605;53.716;19.940;2024-02-14T03:19:25;100774.03;;;1.72;100.00
57900;BME280;60605;53.716;19.940;2024-02-14T03:24:30;100776.41;;;1.67;100.00
57900;BME280;60605;53.716;19.940;2024-02-14T03:29:33;100774.88;;;1.60;100.00
57900;BME280;60605;53.716;19.940;2024-02-14T03:34:38;100783.27;;;1.48;100.00
57900;BME280;60605;53.716;19.940;2024-02-14T03:39:42;100784.68;;;1.35;100.00
57900;BME280;60605;53.716;19.940;2024-02-14T03:44:45;100787.22;;;1.24;100.00
57900;BME280;60605;53.716;19.940;2024-02-14T03:49:49;100788.23;;;1.15;100.00
57900;BME280;60605;53.716;19.940;2024-02-14T03:54:53;100783.64;;;1.06;100.00
57900;BME280;60605;53.716;19.940;2024-02-14T03:59:58;100787.20;;;0.98;100.00
57900;BME280;60605;53.716;19.940;2024-02-14T04:05:03;100792.98;;;0.92;100.00
57900;BME280;60605;53.716;19.940;2024-02-14T04:10:07;100789.73;;;0.86;100.00
57900;BME280;60605;53.716;19.940;2024-02-14T04:15:11;100793.73;;;0.84;100.00
57900;BME280;60605;53.716;19.940;2024-02-14T04:20:15;100798.82;;;0.84;100.00
57900;BME280;60605;53.716;19.940;2024-02-14T04:25:18;100796.89;;;0.88;100.00
57900;BME280;60605;53.716;19.940;2024-02-14T04:30:22;100794.90;;;0.92;100.00
57900;BME280;60605;53.716;19.940;2024-02-14T04:35:25;100799.24;;;0.97;100.00
57900;BME280;60605;53.716;19.940;2024-02-14T04:40:28;100803.04;;;0.98;100.00
57900;BME280;60605;53.716;19.940;2024-02-14T04:45:32;100803.44;;;0.97;100.00
57900;BME280;60605;53.716;19.940;2024-02-14T04:50:35;100803.10;;;0.93;100.00
57900;BME280;60605;53.716;19.940;2024-02-14T04:55:40;100806.71;;;0.88;100.00
57900;BME280;60605;53.716;19.940;2024-02-14T05:00:43;100807.77;;;0.81;100.00
57900;BME280;60605;53.716;19.940;2024-02-14T05:05:47;100812.77;;;0.76;100.00
57900;BME280;60605;53.716;19.940;2024-02-14T05:10:51;100814.08;;;0.75;100.00
57900;BME280;60605;53.716;19.940;2024-02-14T05:15:54;100822.81;;;0.69;100.00
57900;BME280;60605;53.716;19.940;2024-02-14T05:20:58;100814.89;;;0.59;100.00
57900;BME280;60605;53.716;19.940;2024-02-14T05:26:02;100819.23;;;0.53;100.00
57900;BME280;60605;53.716;19.940;2024-02-14T05:31:05;100825.42;;;0.45;100.00
57900;BME280;60605;53.716;19.940;2024-02-14T05:36:09;100825.77;;;0.38;100.00
57900;BME280;60605;53.716;19.940;2024-02-14T05:41:13;100828.64;;;0.33;100.00
57900;BME280;60605;53.716;19.940;2024-02-14T05:46:17;100836.46;;;0.31;100.00
57900;BME280;60605;53.716;19.940;2024-02-14T05:51:20;100838.98;;;0.30;100.00
57900;BME280;60605;53.716;19.940;2024-02-14T05:56:23;100838.38;;;0.32;100.00
57900;BME280;60605;53.716;19.940;2024-02-14T06:01:27;100829.31;;;0.34;100.00
57900;BME280;60605;53.716;19.940;2024-02-14T06:06:32;100832.90;;;0.40;100.00
57900;BME280;60605;53.716;19.940;2024-02-14T06:11:36;100836.89;;;0.44;100.00
57900;BME280;60605;53.716;19.940;2024-02-14T06:16:42;100837.08;;;0.48;100.00
57900;BME280;60605;53.716;19.940;2024-02-14T06:21:47;100849.98;;;0.53;100.00
57900;BME280;60605;53.716;19.940;2024-02-14T06:26:50;100851.56;;;0.60;100.00
57900;BME280;60605;53.716;19.940;2024-02-14T06:31:54;100850.52;;;0.70;100.00
57900;BME280;60605;53.716;19.940;2024-02-14T06:36:57;100857.65;;;0.82;100.00
57900;BME280;60605;53.716;19.940;2024-02-14T06:42:01;100866.97;;;0.96;100.00
57900;BME280;60605;53.716;19.940;2024-02-14T06:47:05;100862.80;;;1.12;100.00
57900;BME280;60605;53.716;19.940;2024-02-14T06:52:08;100858.72;;;1.26;100.00
57900;BME280;60605;53.716;19.940;2024-02-14T06:57:12;100863.78;;;1.47;100.00
57900;BME280;60605;53.716;19.940;2024-02-14T07:02:15;100864.00;;;1.75;100.00
57900;BME280;60605;53.716;19.940;2024-02-14T07:07:19;100862.58;;;2.10;100.00
57900;BME280;60605;53.716;19.940;2024-02-14T07:12:22;100862.92;;;2.60;100.00
57900;BME280;60605;53.716;19.940;2024-02-14T07:17:26;100860.92;;;3.79;100.00
57900;BME280;60605;53.716;19.940;2024-02-14T07:22:30;100855.98;;;4.90;100.00
57900;BME280;60605;53.716;19.940;2024-02-14T07:27:33;100852.89;;;4.92;100.00
57900;BME280;60605;53.716;19.940;2024-02-14T07:32:37;100858.25;;;4.75;100.00
57900;BME280;60605;53.716;19.940;2024-02-14T07:37:41;100865.20;;;4.72;100.00
57900;BME280;60605;53.716;19.940;2024-02-14T07:42:45;100870.11;;;4.72;100.00
57900;BME280;60605;53.716;19.940;2024-02-14T07:47:49;100868.11;;;4.76;100.00
57900;BME280;60605;53.716;19.940;2024-02-14T07:52:53;100871.61;;;4.79;100.00
57900;BME280;60605;53.716;19.940;2024-02-14T07:57:57;100872.05;;;4.91;100.00
57900;BME280;60605;53.716;19.940;2024-02-14T08:03:01;100866.92;;;5.22;100.00
57900;BME280;60605;53.716;19.940;2024-02-14T08:08:07;100866.02;;;5.55;100.00
57900;BME280;60605;53.716;19.940;2024-02-14T08:13:10;100869.16;;;5.96;100.00
57900;BME280;60605;53.716;19.940;2024-02-14T08:18:18;100866.77;;;6.72;100.00
57900;BME280;60605;53.716;19.940;2024-02-14T08:23:22;100870.03;;;7.52;100.00
57900;BME280;60605;53.716;19.940;2024-02-14T08:28:25;100868.85;;;8.66;100.00
57900;BME280;60605;53.716;19.940;2024-02-14T08:33:29;100873.39;;;9.73;100.00
57900;BME280;60605;53.716;19.940;2024-02-14T08:38:33;100875.91;;;10.88;100.00
57900;BME280;60605;53.716;19.940;2024-02-14T08:43:38;100881.27;;;12.52;99.41
57900;BME280;60605;53.716;19.940;2024-02-14T08:48:42;100878.82;;;15.43;92.63
57900;BME280;60605;53.716;19.940;2024-02-14T08:53:51;100885.75;;;18.07;82.62
57900;BME280;60605;53.716;19.940;2024-02-14T08:59:00;100886.40;;;19.45;74.17
57900;BME280;60605;53.716;19.940;2024-02-14T09:04:04;100888.30;;;21.11;65.55
57900;BME280;60605;53.716;19.940;2024-02-14T09:09:08;100893.13;;;22.41;60.20
57900;BME280;60605;53.716;19.940;2024-02-14T09:14:13;100888.54;;;23.09;54.77
57900;BME280;60605;53.716;19.940;2024-02-14T09:19:16;100889.09;;;23.82;51.58
57900;BME280;60605;53.716;19.940;2024-02-14T09:24:20;100886.44;;;24.21;52.30
57900;BME280;60605;53.716;19.940;2024-02-14T09:29:23;100883.45;;;24.18;51.69
57900;BME280;60605;53.716;19.940;2024-02-14T09:34:27;100883.55;;;24.81;47.01
57900;BME280;60605;53.716;19.940;2024-02-14T09:39:30;100884.20;;;25.26;45.83
57900;BME280;60605;53.716;19.940;2024-02-14T09:44:35;100886.21;;;25.74;44.72
57900;BME280;60605;53.716;19.940;2024-02-14T09:49:40;100888.98;;;26.29;42.94
57900;BME280;60605;53.716;19.940;2024-02-14T09:54:45;100892.61;;;27.02;41.98
57900;BME280;60605;53.716;19.940;2024-02-14T09:59:49;100892.99;;;27.61;38.13
57900;BME280;60605;53.716;19.940;2024-02-14T10:04:54;100894.63;;;27.96;35.96
57900;BME280;60605;53.716;19.940;2024-02-14T10:10:06;100893.98;;;27.79;35.79
57900;BME280;60605;53.716;19.940;2024-02-14T10:15:10;100893.12;;;26.32;35.42
57900;BME280;60605;53.716;19.940;2024-02-14T10:20:17;100887.60;;;25.16;36.48
57900;BME280;60605;53.716;19.940;2024-02-14T10:25:21;100884.92;;;24.79;35.73
57900;BME280;60605;53.716;19.940;2024-02-14T10:30:25;100880.80;;;21.96;38.49
57900;BME280;60605;53.716;19.940;2024-02-14T10:35:30;100872.83;;;18.93;42.22
57900;BME280;60605;53.716;19.940;2024-02-14T10:40:36;100865.88;;;16.39;47.39
57900;BME280;60605;53.716;19.940;2024-02-14T10:45:41;100863.21;;;14.55;52.05
57900;BME280;60605;53.716;19.940;2024-02-14T10:50:46;100859.27;;;13.20;56.36
57900;BME280;60605;53.716;19.940;2024-02-14T10:55:51;100857.12;;;12.27;59.98
57900;BME280;60605;53.716;19.940;2024-02-14T11:00:56;100851.67;;;11.67;62.61
57900;BME280;60605;53.716;19.940;2024-02-14T11:06:02;100846.25;;;11.27;64.63
57900;BME280;60605;53.716;19.940;2024-02-14T11:11:08;100841.55;;;10.87;66.57
57900;BME280;60605;53.716;19.940;2024-02-14T11:16:12;100845.30;;;10.58;68.85
57900;BME280;60605;53.716;19.940;2024-02-14T11:21:16;100844.52;;;10.51;70.33
57900;BME280;60605;53.716;19.940;2024-02-14T11:26:21;100842.72;;;10.65;70.94
57900;BME280;60605;53.716;19.940;2024-02-14T11:31:32;100839.58;;;10.78;71.27
57900;BME280;60605;53.716;19.940;2024-02-14T11:36:39;100836.38;;;10.68;71.12
57900;BME280;60605;53.716;19.940;2024-02-14T11:41:44;100834.31;;;10.47;70.77
57900;BME280;60605;53.716;19.940;2024-02-14T11:46:47;100833.86;;;10.21;71.30
57900;BME280;60605;53.716;19.940;2024-02-14T11:51:51;100833.14;;;9.99;72.16
57900;BME280;60605;53.716;19.940;2024-02-14T11:56:56;100827.98;;;9.87;73.55
57900;BME280;60605;53.716;19.940;2024-02-14T12:02:00;100831.60;;;9.80;73.69
57900;BME280;60605;53.716;19.940;2024-02-14T12:07:06;100835.44;;;9.65;74.55
57900;BME280;60605;53.716;19.940;2024-02-14T12:12:10;100832.36;;;9.55;75.37
57900;BME280;60605;53.716;19.940;2024-02-14T12:17:13;100829.77;;;9.36;75.09
57900;BME280;60605;53.716;19.940;2024-02-14T12:22:17;100826.38;;;9.14;75.90
57900;BME280;60605;53.716;19.940;2024-02-14T12:27:24;100816.77;;;8.97;76.06
57900;BME280;60605;53.716;19.940;2024-02-14T12:32:28;100814.01;;;8.89;77.50
57900;BME280;60605;53.716;19.940;2024-02-14T12:37:31;100811.34;;;8.81;77.38
57900;BME280;60605;53.716;19.940;2024-02-14T12:42:35;100807.05;;;8.75;77.44
57900;BME280;60605;53.716;19.940;2024-02-14T12:47:39;100803.40;;;8.76;77.65
57900;BME280;60605;53.716;19.940;2024-02-14T12:52:46;100800.29;;;8.83;77.32
57900;BME280;60605;53.716;19.940;2024-02-14T12:57:50;100800.73;;;8.92;76.84
57900;BME280;60605;53.716;19.940;2024-02-14T13:02:53;100805.86;;;8.95;76.24
57900;BME280;60605;53.716;19.940;2024-02-14T13:07:57;100809.96;;;8.97;76.10
57900;BME280;60605;53.716;19.940;2024-02-14T13:13:00;100814.19;;;9.12;76.34
57900;BME280;60605;53.716;19.940;2024-02-14T13:18:04;100813.33;;;9.34;75.90
57900;BME280;60605;53.716;19.940;2024-02-14T13:23:08;100811.27;;;9.56;75.35
57900;BME280;60605;53.716;19.940;2024-02-14T13:28:12;100806.00;;;9.69;74.91
57900;BME280;60605;53.716;19.940;2024-02-14T13:33:16;100808.42;;;9.74;74.56
57900;BME280;60605;53.716;19.940;2024-02-14T13:38:19;100812.33;;;9.68;74.18
57900;BME280;60605;53.716;19.940;2024-02-14T13:43:23;100812.70;;;9.50;73.79
57900;BME280;60605;53.716;19.940;2024-02-14T13:48:26;100814.21;;;9.35;74.80
57900;BME280;60605;53.716;19.940;2024-02-14T13:53:30;100812.89;;;9.23;74.99
57900;BME280;60605;53.716;19.940;2024-02-14T13:58:33;100816.45;;;9.15;75.05
57900;BME280;60605;53.716;19.940;2024-02-14T14:03:37;100813.63;;;9.13;76.29
57900;BME280;60605;53.716;19.940;2024-02-14T14:08:41;100809.40;;;9.16;76.61
57900;BME280;60605;53.716;19.940;2024-02-14T14:13:44;100810.21;;;9.15;76.59
57900;BME280;60605;53.716;19.940;2024-02-14T14:18:50;100802.73;;;9.11;76.61
57900;BME280;60605;53.716;19.940;2024-02-14T14:23:57;100801.86;;;9.00;76.74
57900;BME280;60605;53.716;19.940;2024-02-14T14:29:01;100804.52;;;8.85;76.73
57900;BME280;60605;53.716;19.940;2024-02-14T14:34:05;100803.04;;;8.69;76.85
57900;BME280;60605;53.716;19.940;2024-02-14T14:39:08;100807.02;;;8.56;77.51
57900;BME280;60605;53.716;19.940;2024-02-14T14:44:15;100806.42;;;8.44;78.05
57900;BME280;60605;53.716;19.940;2024-02-14T14:49:18;100804.97;;;8.33;78.36
57900;BME280;60605;53.716;19.940;2024-02-14T14:54:23;100799.80;;;8.25;78.59
57900;BME280;60605;53.716;19.940;2024-02-14T14:59:30;100804.96;;;8.18;78.93
57900;BME280;60605;53.716;19.940;2024-02-14T15:04:33;100805.36;;;8.11;79.19
57900;BME280;60605;53.716;19.940;2024-02-14T15:09:39;100802.83;;;8.03;79.55
57900;BME280;60605;53.716;19.940;2024-02-14T15:14:43;100800.71;;;7.94;80.17
57900;BME280;60605;53.716;19.940;2024-02-14T15:19:46;100798.81;;;7.85;80.84
57900;BME280;60605;53.716;19.940;2024-02-14T15:24:51;100795.09;;;7.74;81.56
57900;BME280;60605;53.716;19.940;2024-02-14T15:29:54;100792.92;;;7.63;82.13
57900;BME280;60605;53.716;19.940;2024-02-14T15:35:18;100798.46;;;7.54;82.59
57900;BME280;60605;53.716;19.940;2024-02-14T15:40:21;100798.46;;;7.45;82.75
57900;BME280;60605;53.716;19.940;2024-02-14T15:45:26;100805.27;;;7.37;83.09
57900;BME280;60605;53.716;19.940;2024-02-14T15:50:29;100806.83;;;7.29;83.51
57900;BME280;60605;53.716;19.940;2024-02-14T15:55:33;100807.23;;;7.21;83.94
57900;BME280;60605;53.716;19.940;2024-02-14T16:00:36;100801.95;;;7.14;84.31
57900;BME280;60605;53.716;19.940;2024-02-14T16:05:40;100797.93;;;7.08;84.74
57900;BME280;60605;53.716;19.940;2024-02-14T16:10:43;100798.41;;;7.02;85.34
57900;BME280;60605;53.716;19.940;2024-02-14T16:15:47;100800.59;;;6.97;85.96
57900;BME280;60605;53.716;19.940;2024-02-14T16:20:52;100804.80;;;6.93;86.36
57900;BME280;60605;53.716;19.940;2024-02-14T16:25:55;100803.49;;;6.89;86.56
57900;BME280;60605;53.716;19.940;2024-02-14T16:30:59;100805.86;;;6.86;86.52
57900;BME280;60605;53.716;19.940;2024-02-14T16:36:03;100808.69;;;6.86;86.52
57900;BME280;60605;53.716;19.940;2024-02-14T16:41:09;100809.61;;;6.86;86.50
57900;BME280;60605;53.716;19.940;2024-02-14T16:46:13;100811.49;;;6.85;86.51
57900;BME280;60605;53.716;19.940;2024-02-14T16:51:17;100813.33;;;6.84;86.56
57900;BME280;60605;53.716;19.940;2024-02-14T16:56:21;100812.48;;;6.83;86.62
57900;BME280;60605;53.716;19.940;2024-02-14T17:01:27;100814.98;;;6.83;86.66
57900;BME280;60605;53.716;19.940;2024-02-14T17:06:31;100822.02;;;6.82;86.80
57900;BME280;60605;53.716;19.940;2024-02-14T17:11:35;100829.64;;;6.80;86.98
57900;BME280;60605;53.716;19.940;2024-02-14T17:16:40;100828.52;;;6.78;87.28
57900;BME280;60605;53.716;19.940;2024-02-14T17:21:45;100832.09;;;6.78;87.62
57900;BME280;60605;53.716;19.940;2024-02-14T17:26:50;100832.72;;;6.77;87.91
57900;BME280;60605;53.716;19.940;2024-02-14T17:31:54;100828.18;;;6.75;88.35
57900;BME280;60605;53.716;19.940;2024-02-14T17:36:58;100829.20;;;6.76;88.61
57900;BME280;60605;53.716;19.940;2024-02-14T17:42:02;100828.33;;;6.76;88.84
57900;BME280;60605;53.716;19.940;2024-02-14T17:47:05;100828.52;;;6.76;89.17
57900;BME280;60605;53.716;19.940;2024-02-14T17:52:10;100826.49;;;6.77;89.50
57900;BME280;60605;53.716;19.940;2024-02-14T17:57:13;100821.20;;;6.76;89.74
57900;BME280;60605;53.716;19.940;2024-02-14T18:02:19;100819.84;;;6.75;90.08
57900;BME280;60605;53.716;19.940;2024-02-14T18:07:23;100817.18;;;6.73;90.51
57900;BME280;60605;53.716;19.940;2024-02-14T18:12:27;100820.21;;;6.70;90.70
57900;BME280;60605;53.716;19.940;2024-02-14T18:17:31;100818.14;;;6.67;91.26
57900;BME280;60605;53.716;19.940;2024-02-14T18:22:34;100816.73;;;6.65;91.48
57900;BME280;60605;53.716;19.940;2024-02-14T18:27:39;100815.38;;;6.62;91.97
57900;BME280;60605;53.716;19.940;2024-02-14T18:32:42;100819.44;;;6.60;92.46
57900;BME280;60605;53.716;19.940;2024-02-14T18:37:46;100826.06;;;6.59;92.79
57900;BME280;60605;53.716;19.940;2024-02-14T18:42:50;100829.09;;;6.59;92.94
57900;BME280;60605;53.716;19.940;2024-02-14T18:47:54;100829.77;;;6.57;93.11
57900;BME280;60605;53.716;19.940;2024-02-14T18:52:58;100833.54;;;6.56;93.38
57900;BME280;60605;53.716;19.940;2024-02-14T18:58:02;100832.72;;;6.55;93.43
57900;BME280;60605;53.716;19.940;2024-02-14T19:03:07;100834.41;;;6.54;93.78
57900;BME280;60605;53.716;19.940;2024-02-14T19:08:12;100831.78;;;6.54;93.91
57900;BME280;60605;53.716;19.940;2024-02-14T19:13:15;100828.27;;;6.53;94.05
57900;BME280;60605;53.716;19.940;2024-02-14T19:18:19;100825.36;;;6.52;94.32
57900;BME280;60605;53.716;19.940;2024-02-14T19:23:24;100821.35;;;6.51;94.60
57900;BME280;60605;53.716;19.940;2024-02-14T19:28:27;100821.35;;;6.51;94.55
57900;BME280;60605;53.716;19.940;2024-02-14T19:33:32;100823.27;;;6.49;94.61
57900;BME280;60605;53.716;19.940;2024-02-14T19:38:36;100822.98;;;6.48;94.79
57900;BME280;60605;53.716;19.940;2024-02-14T19:43:40;100818.08;;;6.47;94.90
57900;BME280;60605;53.716;19.940;2024-02-14T19:48:44;100813.89;;;6.49;94.82
57900;BME280;60605;53.716;19.940;2024-02-14T19:53:48;100820.33;;;6.48;94.84
57900;BME280;60605;53.716;19.940;2024-02-14T19:58:52;100819.42;;;6.46;94.93
57900;BME280;60605;53.716;19.940;2024-02-14T20:03:55;100817.73;;;6.44;95.03
57900;BME280;60605;53.716;19.940;2024-02-14T20:09:02;100813.52;;;6.44;94.96
57900;BME280;60605;53.716;19.940;2024-02-14T20:14:06;100809.36;;;6.45;94.84
57900;BME280;60605;53.716;19.940;2024-02-14T20:19:11;100808.94;;;6.46;94.55
57900;BME280;60605;53.716;19.940;2024-02-14T20:24:19;100810.48;;;6.47;94.50
57900;BME280;60605;53.716;19.940;2024-02-14T20:29:23;100808.34;;;6.47;94.42
57900;BME280;60605;53.716;19.940;2024-02-14T20:34:27;100806.11;;;6.46;94.28
57900;BME280;60605;53.716;19.940;2024-02-14T20:39:31;100805.22;;;6.46;94.31
57900;BME280;60605;53.716;19.940;2024-02-14T20:44:34;100802.09;;;6.45;94.23
57900;BME280;60605;53.716;19.940;2024-02-14T20:49:38;100799.57;;;6.43;94.35
57900;BME280;60605;53.716;19.940;2024-02-14T20:54:42;100798.73;;;6.42;94.27
57900;BME280;60605;53.716;19.940;2024-02-14T20:59:46;100799.55;;;6.41;94.32
57900;BME280;60605;53.716;19.940;2024-02-14T21:04:51;100801.49;;;6.39;94.42
57900;BME280;60605;53.716;19.940;2024-02-14T21:09:55;100794.14;;;6.37;94.36
57900;BME280;60605;53.716;19.940;2024-02-14T21:14:59;100785.71;;;6.36;94.45
57900;BME280;60605;53.716;19.940;2024-02-14T21:20:04;100782.32;;;6.34;94.43
57900;BME280;60605;53.716;19.940;2024-02-14T21:25:09;100776.30;;;6.34;94.31
57900;BME280;60605;53.716;19.940;2024-02-14T21:30:13;100773.31;;;6.34;94.14
57900;BME280;60605;53.716;19.940;2024-02-14T21:35:17;100773.81;;;6.34;94.02
57900;BME280;60605;53.716;19.940;2024-02-14T21:40:22;100772.77;;;6.34;93.95
57900;BME280;60605;53.716;19.940;2024-02-14T21:45:25;100774.46;;;6.33;94.02
57900;BME280;60605;53.716;19.940;2024-02-14T21:50:29;100773.48;;;6.31;94.11
57900;BME280;60605;53.716;19.940;2024-02-14T21:55:33;100766.00;;;6.29;94.21
57900;BME280;60605;53.716;19.940;2024-02-14T22:00:38;100763.64;;;6.28;94.31
57900;BME280;60605;53.716;19.940;2024-02-14T22:05:41;100768.95;;;6.28;94.00
57900;BME280;60605;53.716;19.940;2024-02-14T22:10:47;100771.08;;;6.28;94.12
57900;BME280;60605;53.716;19.940;2024-02-14T22:15:50;100770.09;;;6.27;94.01
57900;BME280;60605;53.716;19.940;2024-02-14T22:20:54;100770.12;;;6.26;93.85
57900;BME280;60605;53.716;19.940;2024-02-14T22:25:58;100765.01;;;6.26;93.70
57900;BME280;60605;53.716;19.940;2024-02-14T22:31:02;100763.25;;;6.26;93.52
57900;BME280;60605;53.716;19.940;2024-02-14T22:36:06;100763.34;;;6.27;93.42
57900;BME280;60605;53.716;19.940;2024-02-14T22:41:09;100761.08;;;6.27;93.33
57900;BME280;60605;53.716;19.940;2024-02-14T22:46:13;100753.48;;;6.26;93.08
57900;BME280;60605;53.716;19.940;2024-02-14T22:51:17;100750.86;;;6.25;93.07
57900;BME280;60605;53.716;19.940;2024-02-14T22:56:20;100750.67;;;6.26;92.66
57900;BME280;60605;53.716;19.940;2024-02-14T23:01:24;100754.91;;;6.26;92.70
57900;BME280;60605;53.716;19.940;2024-02-14T23:06:29;100758.23;;;6.26;92.59
57900;BME280;60605;53.716;19.940;2024-02-14T23:11:37;100753.16;;;6.26;92.59
57900;BME280;60605;53.716;19.940;2024-02-14T23:16:41;100752.27;;;6.26;92.30
57900;BME280;60605;53.716;19.940;2024-02-14T23:21:44;100755.05;;;6.26;92.27
57900;BME280;60605;53.716;19.940;2024-02-14T23:26:49;100754.61;;;6.28;91.66
57900;BME280;60605;53.716;19.940;2024-02-14T23:31:53;100748.61;;;6.30;91.51
57900;BME280;60605;53.716;19.940;2024-02-14T23:36:57;100748.75;;;6.30;91.29
57900;BME280;60605;53.716;19.940;2024-02-14T23:42:01;100751.84;;;6.31;90.74
57900;BME280;60605;53.716;19.940;2024-02-14T23:47:06;100748.11;;;6.31;90.96
57900;BME280;60605;53.716;19.940;2024-02-14T23:52:10;100744.45;;;6.30;90.92
57900;BME280;60605;53.716;19.940;2024-02-14T23:57:13;100744.81;;;6.30;90.61
